Time;durP1;ratioP1;P1;durP2;ratioP2;P2;SDS_P1;SDS_P2;PMS_P1;PMS_P2;Temp;Humidity;BMP_temperature;BMP_pressure;BME280_temperature;BME280_humidity;BME280_pressure;Samples;Min_cycle;Max_cycle;Signal;HPM_P1;HPM_P2
2021/12/16 00:02:19;;;;;;;7.57;4.35;;;18.20;59.40;;;;;;5021757;28;20044;-55
2021/12/16 00:07:34;;;;;;;7.53;4.95;;;18.20;59.40;;;;;;5021192;28;20076;-60
2021/12/16 00:10:17;;;;;;;6.45;4.28;;;18.10;59.30;;;;;;5021730;28;20029;-54
2021/12/16 00:34:02;;;;;;;7.13;4.25;;;18.10;59.00;;;;;;5022320;28;20080;-57
2021/12/16 00:36:34;;;;;;;6.85;3.88;;;18.10;59.00;;;;;;5026841;28;20057;-55
2021/12/16 00:39:09;;;;;;;7.57;3.75;;;18.10;58.90;;;;;;5025066;28;20030;-56
2021/12/16 00:41:36;;;;;;;6.25;3.40;;;18.10;58.90;;;;;;5025832;28;20492;-56
2021/12/16 00:44:48;;;;;;;4.32;2.80;;;18.10;58.90;;;;;;5025030;28;20057;-56
2021/12/16 00:47:13;;;;;;;;;;;18.10;59.50;;;;;;5025958;28;20052;-59
2021/12/16 00:49:45;;;;;;;5.15;2.95;;;18.10;58.80;;;;;;5026048;28;19913;-54
2021/12/16 00:55:18;;;;;;;5.20;3.10;;;18.10;58.70;;;;;;5030475;28;20036;-55
2021/12/16 00:57:45;;;;;;;;;;;18.10;58.70;;;;;;5034050;28;20081;-56
2021/12/16 01:00:13;;;;;;;5.00;2.60;;;18.10;58.70;;;;;;5029194;28;19991;-56
2021/12/16 01:07:55;;;;;;;4.10;2.58;;;18.10;58.70;;;;;;5067249;28;20032;-65
2021/12/16 01:35:18;;;;;;;4.00;2.60;;;18.10;58.40;;;;;;5048471;28;20028;-65
2021/12/16 01:45:49;;;;;;;3.97;2.08;;;18.10;58.20;;;;;;5047154;28;20056;-66
2021/12/16 01:50:49;;;;;;;3.13;2.08;;;18.10;58.20;;;;;;5048075;28;20022;-65
2021/12/16 01:53:35;;;;;;;2.72;2.05;;;18.10;58.20;;;;;;5048470;28;20025;-66
2021/12/16 01:56:16;;;;;;;2.90;2.22;;;18.10;58.10;;;;;;5048138;28;20096;-65
2021/12/16 01:58:41;;;;;;;3.85;2.30;;;18.10;58.10;;;;;;5047680;28;20021;-67
2021/12/16 02:03:46;;;;;;;3.53;2.28;;;18.10;58.10;;;;;;5048045;28;20428;-66
2021/12/16 02:06:41;;;;;;;2.28;1.83;;;18.10;58.10;;;;;;5047731;28;20021;-65
2021/12/16 02:09:24;;;;;;;2.72;2.10;;;18.10;58.10;;;;;;5047611;28;20363;-66
2021/12/16 02:11:58;;;;;;;1.83;1.55;;;18.10;58.10;;;;;;5047993;28;20087;-64
2021/12/16 02:36:14;;;;;;;2.88;1.95;;;18.00;58.10;;;;;;5044732;28;20763;-66
2021/12/16 02:38:43;;;;;;;2.00;1.80;;;18.00;58.10;;;;;;5045658;28;20378;-67
2021/12/16 02:41:08;;;;;;;4.43;1.95;;;17.90;58.00;;;;;;5046301;28;20021;-67
2021/12/16 02:48:42;;;;;;;1.98;1.70;;;17.90;58.10;;;;;;5045613;28;20036;-64
2021/12/16 02:51:13;;;;;;;2.50;1.50;;;17.90;58.10;;;;;;5046530;28;20105;-65
2021/12/16 02:53:43;;;;;;;2.53;1.73;;;17.90;58.10;;;;;;5045646;28;20024;-65
2021/12/16 02:56:09;;;;;;;2.55;1.52;;;17.90;58.00;;;;;;5044993;28;20021;-66
2021/12/16 02:58:37;;;;;;;2.65;1.58;;;17.90;58.00;;;;;;5044476;28;20017;-66
2021/12/16 03:01:11;;;;;;;1.70;1.60;;;18.00;57.90;;;;;;5045457;28;20048;-65
2021/12/16 03:03:39;;;;;;;1.75;1.40;;;18.00;57.90;;;;;;5044691;28;20060;-66
2021/12/16 03:06:05;;;;;;;1.42;1.30;;;18.00;57.80;;;;;;5044557;28;20401;-65
2021/12/16 03:08:32;;;;;;;3.65;1.75;;;17.90;57.80;;;;;;5044700;28;20025;-66
2021/12/16 03:11:06;;;;;;;3.15;1.58;;;18.00;57.80;;;;;;5058792;28;20043;-67
2021/12/16 03:13:37;;;;;;;2.60;1.90;;;17.90;57.70;;;;;;5064471;28;20111;-66
2021/12/16 03:18:51;;;;;;;2.35;1.40;;;17.90;57.80;;;;;;5063857;28;20043;-64
2021/12/16 03:21:24;;;;;;;2.22;1.58;;;17.90;57.80;;;;;;5064488;28;20047;-65
2021/12/16 03:24:08;;;;;;;1.88;1.52;;;17.90;57.80;;;;;;5064125;28;20177;-65
2021/12/16 03:29:26;;;;;;;4.63;1.90;;;17.90;57.70;;;;;;5061054;28;20055;-66
2021/12/16 03:32:06;;;;;;;2.10;1.40;;;17.90;57.70;;;;;;5044885;28;20040;-66
2021/12/16 03:37:14;;;;;;;1.83;1.40;;;17.90;57.70;;;;;;5050862;28;20082;-68
2021/12/16 03:39:42;;;;;;;1.45;1.35;;;17.90;57.70;;;;;;5043918;28;20028;-64
2021/12/16 03:42:08;;;;;;;1.90;1.70;;;17.90;57.70;;;;;;5044384;28;20076;-65
2021/12/16 03:44:49;;;;;;;1.73;1.63;;;17.90;57.60;;;;;;5043670;28;20025;-67
2021/12/16 03:47:16;;;;;;;1.48;1.10;;;18.00;57.70;;;;;;5043756;28;20040;-66
2021/12/16 03:49:42;;;;;;;2.03;1.52;;;17.90;57.60;;;;;;5044027;28;20048;-65
2021/12/16 03:52:08;;;;;;;3.35;1.67;;;17.90;57.60;;;;;;5042841;28;20489;-65
2021/12/16 03:54:38;;;;;;;1.77;1.30;;;17.90;57.60;;;;;;5043429;28;20025;-65
2021/12/16 03:57:05;;;;;;;1.77;1.20;;;17.90;57.60;;;;;;5032987;28;20071;-67
2021/12/16 03:59:32;;;;;;;1.73;1.52;;;17.90;57.60;;;;;;5042812;28;20074;-65
2021/12/16 04:01:59;;;;;;;1.30;1.20;;;17.90;57.70;;;;;;5042181;28;20125;-65
2021/12/16 04:04:24;;;;;;;2.08;1.42;;;17.90;57.60;;;;;;5043310;28;20083;-65
2021/12/16 04:06:50;;;;;;;1.20;1.08;;;17.90;57.60;;;;;;5040739;28;20036;-64
2021/12/16 04:09:16;;;;;;;1.45;1.00;;;17.90;57.70;;;;;;5051052;28;20101;-64
2021/12/16 04:11:50;;;;;;;1.33;1.15;;;17.90;57.60;;;;;;5040191;28;20086;-64
2021/12/16 04:14:15;;;;;;;1.20;1.10;;;17.90;57.60;;;;;;5054665;28;20378;-64
2021/12/16 04:16:45;;;;;;;1.30;1.17;;;17.90;57.60;;;;;;5045287;28;20070;-64
2021/12/16 04:19:12;;;;;;;1.40;1.02;;;17.90;57.60;;;;;;5045434;28;20056;-64
2021/12/16 04:21:39;;;;;;;1.90;1.20;;;17.90;57.50;;;;;;5042909;28;20025;-64
2021/12/16 04:24:05;;;;;;;1.55;1.20;;;17.90;57.50;;;;;;5046729;28;20058;-63
2021/12/16 04:26:31;;;;;;;1.45;1.30;;;17.90;57.50;;;;;;5043471;28;20464;-65
2021/12/16 04:28:56;;;;;;;1.55;1.40;;;17.90;57.50;;;;;;5046957;28;20028;-65
2021/12/16 04:31:22;;;;;;;1.35;1.08;;;17.90;57.50;;;;;;5044541;28;20039;-65
2021/12/16 04:33:49;;;;;;;1.80;1.15;;;17.90;57.50;;;;;;5046638;28;20528;-64
2021/12/16 04:36:15;;;;;;;1.60;1.40;;;17.90;57.40;;;;;;5043570;28;20246;-65
2021/12/16 04:38:41;;;;;;;3.72;1.15;;;17.90;57.30;;;;;;5046602;28;20028;-64
2021/12/16 04:41:09;;;;;;;1.48;1.08;;;17.90;57.30;;;;;;5042185;28;20456;-65
2021/12/16 04:43:41;;;;;;;1.48;1.20;;;17.90;57.30;;;;;;5046827;28;20025;-65
2021/12/16 04:46:12;;;;;;;1.38;1.27;;;17.90;57.30;;;;;;5043767;28;20040;-64
2021/12/16 04:48:39;;;;;;;1.33;1.17;;;18.00;57.30;;;;;;5045294;28;20025;-62
2021/12/16 04:51:04;;;;;;;1.50;1.40;;;18.00;57.30;;;;;;5043373;28;20078;-63
2021/12/16 04:53:30;;;;;;;2.75;1.50;;;18.00;57.20;;;;;;5047264;28;20029;-65
2021/12/16 04:55:55;;;;;;;1.35;1.20;;;18.00;57.10;;;;;;5046466;28;20435;-65
2021/12/16 04:58:21;;;;;;;1.30;1.20;;;18.00;57.00;;;;;;5041823;28;20542;-65
2021/12/16 05:00:46;;;;;;;1.92;1.30;;;18.10;57.00;;;;;;5046843;28;20104;-64
2021/12/16 05:03:12;;;;;;;1.65;1.40;;;18.10;57.00;;;;;;5042783;28;20669;-64
2021/12/16 05:05:37;;;;;;;1.67;1.55;;;18.10;56.90;;;;;;5044907;28;20063;-64
2021/12/16 05:08:03;;;;;;;1.92;1.55;;;18.10;56.80;;;;;;5042893;28;20021;-66
2021/12/16 05:10:29;;;;;;;1.73;1.48;;;18.10;56.80;;;;;;5046017;28;20029;-65
2021/12/16 05:12:56;;;;;;;1.52;1.20;;;18.10;56.80;;;;;;5043919;28;20063;-64
2021/12/16 05:15:26;;;;;;;1.65;1.30;;;18.20;56.80;;;;;;5044288;28;20049;-64
2021/12/16 05:17:54;;;;;;;1.40;1.30;;;18.20;56.70;;;;;;5042652;28;20044;-64
2021/12/16 05:20:31;;;;;;;2.22;1.33;;;18.20;56.70;;;;;;5044707;28;20053;-65
2021/12/16 05:25:56;;;;;;;2.05;1.50;;;18.20;56.60;;;;;;5045640;28;20087;-64
2021/12/16 05:28:22;;;;;;;1.77;1.38;;;18.20;56.60;;;;;;5042512;28;20362;-66
2021/12/16 05:30:49;;;;;;;2.30;1.60;;;18.20;56.60;;;;;;5045911;28;20067;-64
2021/12/16 05:33:14;;;;;;;2.08;1.52;;;18.20;56.60;;;;;;5032244;28;20135;-64
2021/12/16 05:35:40;;;;;;;1.52;1.35;;;18.20;56.50;;;;;;5045596;28;20592;-64
2021/12/16 05:38:06;;;;;;;1.80;1.50;;;18.20;56.50;;;;;;5047056;28;20425;-65
2021/12/16 05:40:31;;;;;;;1.65;1.40;;;18.20;56.50;;;;;;5045826;28;20120;-64
2021/12/16 05:42:59;;;;;;;1.77;1.50;;;18.20;56.40;;;;;;5046275;28;20024;-62
2021/12/16 05:45:25;;;;;;;1.63;1.50;;;18.20;56.40;;;;;;5045779;28;20037;-64
2021/12/16 05:47:51;;;;;;;1.80;1.55;;;18.20;56.30;;;;;;5041513;28;20036;-66
2021/12/16 05:50:17;;;;;;;1.52;1.40;;;18.20;56.30;;;;;;5045028;28;20028;-63
2021/12/16 05:52:42;;;;;;;3.00;1.60;;;18.20;56.30;;;;;;5041957;28;20396;-65
2021/12/16 05:55:08;;;;;;;2.15;1.58;;;18.20;56.30;;;;;;5045229;28;20752;-64
2021/12/16 05:57:34;;;;;;;1.70;1.60;;;18.20;56.30;;;;;;5042163;28;20025;-62
2021/12/16 05:59:59;;;;;;;1.92;1.55;;;18.20;56.30;;;;;;5044783;28;20533;-64
2021/12/16 06:02:25;;;;;;;1.35;1.25;;;18.20;56.30;;;;;;5042557;28;20020;-65
2021/12/16 06:04:51;;;;;;;2.45;1.58;;;18.20;56.20;;;;;;5049463;28;20033;-63
2021/12/16 06:07:18;;;;;;;1.95;1.77;;;18.30;56.30;;;;;;5041692;28;20029;-62
2021/12/16 06:09:45;;;;;;;1.70;1.60;;;18.30;56.20;;;;;;5044518;28;20021;-64
2021/12/16 06:12:10;;;;;;;2.00;1.35;;;18.20;56.10;;;;;;5042429;28;20021;-64
2021/12/16 06:27:41;;;;;;;4.57;3.65;;;18.20;56.30;;;;;;5039806;28;20028;-64
2021/12/16 06:30:08;;;;;;;7.68;4.22;;;18.20;56.30;;;;;;5044498;28;20013;-64
2021/12/16 06:32:34;;;;;;;7.70;3.92;;;18.30;56.30;;;;;;5040998;28;20114;-64
2021/12/16 06:34:59;;;;;;;4.07;3.55;;;18.20;56.20;;;;;;5043369;28;20715;-63
2021/12/16 06:37:25;;;;;;;4.75;3.42;;;18.20;56.20;;;;;;5039935;28;20035;-61
2021/12/16 06:39:51;;;;;;;8.57;3.72;;;18.20;56.20;;;;;;5043885;28;20029;-62
2021/12/16 06:42:16;;;;;;;6.15;3.70;;;18.20;56.20;;;;;;5040539;28;20511;-63
2021/12/16 06:44:49;;;;;;;4.78;3.42;;;18.20;56.20;;;;;;5044202;28;20023;-65
2021/12/16 06:47:20;;;;;;;5.93;4.18;;;18.20;56.20;;;;;;5040873;28;20440;-65
2021/12/16 06:49:47;;;;;;;7.63;3.67;;;18.20;56.10;;;;;;5040795;28;20059;-61
2021/12/16 06:52:17;;;;;;;5.43;4.28;;;18.20;56.00;;;;;;5039813;28;20041;-63
2021/12/16 06:57:38;;;;;;;8.63;4.50;;;18.20;55.90;;;;;;5040607;28;20127;-63
2021/12/16 07:00:36;;;;;;;7.32;3.85;;;18.20;55.80;;;;;;5043718;28;20524;-62
2021/12/16 07:03:04;;;;;;;4.55;3.90;;;18.20;55.70;;;;;;5037220;28;20021;-61
2021/12/16 07:05:33;;;;;;;8.68;5.50;;;18.20;55.60;;;;;;5058885;23;20075;-76
2021/12/16 07:07:59;;;;;;;12.07;6.63;;;18.20;55.70;;;;;;5029039;28;20483;-77
2021/12/16 07:10:25;;;;;;;18.17;6.47;;;18.20;55.90;;;;;;5052082;28;20034;-77
2021/12/16 07:12:50;;;;;;;13.50;6.63;;;18.20;55.80;;;;;;5048482;28;20442;-77
2021/12/16 07:15:20;;;;;;;10.30;4.88;;;18.20;55.70;;;;;;5070667;28;20438;-77
2021/12/16 07:17:45;;;;;;;7.18;5.10;;;18.20;55.70;;;;;;5030695;28;20027;-77
2021/12/16 07:20:14;;;;;;;12.25;5.13;;;18.20;55.70;;;;;;5027364;28;20103;-78
2021/12/16 07:22:40;;;;;;;10.55;5.75;;;18.20;55.60;;;;;;5028687;28;20688;-77
2021/12/16 07:25:06;;;;;;;10.07;4.80;;;18.20;55.60;;;;;;5032263;28;20184;-77
2021/12/16 07:27:34;;;;;;;10.15;5.68;;;18.20;55.60;;;;;;5032250;28;20020;-78
2021/12/16 07:30:01;;;;;;;6.85;4.40;;;18.20;55.50;;;;;;5052537;28;20033;-77
2021/12/16 07:32:26;;;;;;;5.93;5.00;;;18.20;55.50;;;;;;5033204;28;20058;-78
2021/12/16 07:34:52;;;;;;;7.45;4.53;;;18.20;55.60;;;;;;5035247;28;20059;-78
2021/12/16 07:37:17;;;;;;;7.82;4.38;;;18.20;55.60;;;;;;5048328;28;20143;-77
2021/12/16 07:39:45;;;;;;;13.35;6.28;;;18.20;55.60;;;;;;5055001;28;20110;-76
2021/12/16 07:42:12;;;;;;;12.90;5.97;;;18.20;56.40;;;;;;5051348;28;20090;-78
2021/12/16 07:44:38;;;;;;;12.73;7.38;;;18.20;56.70;;;;;;5036897;28;20033;-74
2021/12/16 07:47:06;;;;;;;13.00;7.00;;;18.20;57.00;;;;;;5046649;28;20040;-74
2021/12/16 07:49:34;;;;;;;13.25;6.70;;;18.20;57.10;;;;;;5043373;28;20104;-74
2021/12/16 07:52:01;;;;;;;12.88;7.55;;;18.20;57.40;;;;;;5045065;28;20028;-74
2021/12/16 07:54:26;;;;;;;13.30;6.55;;;18.20;57.40;;;;;;5045706;28;20563;-74
2021/12/16 07:56:54;;;;;;;12.05;6.38;;;18.20;57.40;;;;;;5042605;28;20151;-74
2021/12/16 07:59:20;;;;;;;15.07;6.90;;;18.20;57.50;;;;;;5062225;28;20448;-75
2021/12/16 08:01:46;;;;;;;10.90;6.60;;;18.20;57.50;;;;;;5045675;28;20101;-75
2021/12/16 08:04:19;;;;;;;13.10;6.93;;;18.20;57.60;;;;;;5062593;28;20464;-75
2021/12/16 08:06:46;;;;;;;11.10;5.50;;;18.20;57.60;;;;;;5061835;28;20105;-74
2021/12/16 08:09:11;;;;;;;7.78;5.55;;;18.20;57.60;;;;;;5046188;28;20033;-75
2021/12/16 08:11:38;;;;;;;12.30;5.70;;;18.20;57.70;;;;;;5061771;28;20025;-74
2021/12/16 08:14:04;;;;;;;8.60;4.90;;;18.20;57.60;;;;;;5045556;28;20025;-73
2021/12/16 08:16:30;;;;;;;11.90;5.22;;;18.20;57.60;;;;;;5063173;28;20040;-73
2021/12/16 08:18:56;;;;;;;8.13;5.82;;;18.20;57.60;;;;;;5045310;28;20104;-72
2021/12/16 08:21:24;;;;;;;7.70;4.93;;;18.10;57.60;;;;;;5062280;28;20107;-72
2021/12/16 08:23:50;;;;;;;9.02;5.13;;;18.10;58.00;;;;;;4144091;28;10000949;-72
2021/12/16 08:26:16;;;;;;;8.73;5.82;;;18.10;58.10;;;;;;5020766;28;20041;-73
2021/12/16 08:28:42;;;;;;;9.30;4.45;;;18.10;58.10;;;;;;5020019;28;20087;-73
2021/12/16 08:31:08;;;;;;;7.85;5.18;;;18.10;58.20;;;;;;5005244;28;20649;-73
2021/12/16 08:33:34;;;;;;;10.75;3.92;;;18.10;58.20;;;;;;4985787;28;20317;-72
2021/12/16 08:35:59;;;;;;;7.13;4.03;;;18.10;58.30;;;;;;5002090;28;20056;-73
2021/12/16 08:38:25;;;;;;;8.00;3.90;;;18.00;58.20;;;;;;5016790;28;20038;-75
2021/12/16 08:40:52;;;;;;;8.52;4.00;;;18.00;57.90;;;;;;5011666;28;20121;-74
2021/12/16 08:43:18;;;;;;;13.73;4.13;;;18.10;58.20;;;;;;5017775;28;20045;-72
2021/12/16 08:45:44;;;;;;;7.38;4.00;;;18.00;58.20;;;;;;5011800;28;20590;-73
2021/12/16 08:48:10;;;;;;;9.27;3.70;;;18.00;58.20;;;;;;4990957;28;20037;-73
2021/12/16 08:50:37;;;;;;;9.32;3.90;;;18.10;58.20;;;;;;5001555;28;20140;-73
2021/12/16 08:53:03;;;;;;;8.95;3.50;;;18.10;58.20;;;;;;4998272;28;20504;-73
2021/12/16 08:55:30;;;;;;;8.52;3.58;;;18.10;58.20;;;;;;5013731;28;20033;-73
2021/12/16 08:57:56;;;;;;;8.30;3.97;;;18.10;58.10;;;;;;5018646;28;20030;-74
2021/12/16 09:00:24;;;;;;;9.30;4.20;;;18.10;58.10;;;;;;5012882;28;20789;-74
2021/12/16 09:02:50;;;;;;;5.35;3.30;;;18.10;58.00;;;;;;5008642;28;20761;-73
2021/12/16 09:05:15;;;;;;;5.75;3.58;;;18.10;58.00;;;;;;5011082;28;20033;-74
2021/12/16 09:07:45;;;;;;;9.60;3.95;;;18.10;58.00;;;;;;5003984;28;20048;-74
2021/12/16 09:10:12;;;;;;;6.72;3.45;;;18.10;58.00;;;;;;5023615;28;20050;-73
2021/12/16 09:12:51;;;;;;;5.85;3.50;;;18.10;58.00;;;;;;5020606;28;20116;-73
2021/12/16 09:15:16;;;;;;;6.70;3.80;;;18.10;57.90;;;;;;5023217;28;20045;-74
2021/12/16 09:17:42;;;;;;;9.68;3.30;;;18.10;58.10;;;;;;5023662;28;20088;-73
2021/12/16 09:20:08;;;;;;;5.80;3.60;;;18.10;58.20;;;;;;5008963;28;20022;-74
2021/12/16 09:22:34;;;;;;;7.65;3.08;;;18.10;58.20;;;;;;5010214;28;20044;-73
2021/12/16 09:24:59;;;;;;;9.93;5.00;;;18.10;58.30;;;;;;4990922;28;20026;-74
2021/12/16 09:27:27;;;;;;;7.05;3.20;;;18.10;58.40;;;;;;5004400;28;20042;-74
2021/12/16 09:29:52;;;;;;;5.57;3.40;;;18.10;58.40;;;;;;5023964;28;20033;-73
2021/12/16 09:32:18;;;;;;;5.03;3.38;;;18.10;58.50;;;;;;5004090;28;20042;-72
2021/12/16 09:34:44;;;;;;;5.57;3.10;;;18.10;58.40;;;;;;5002586;28;20053;-74
2021/12/16 09:37:09;;;;;;;4.32;3.00;;;18.10;58.40;;;;;;5024322;28;20034;-73
2021/12/16 09:39:36;;;;;;;6.85;3.15;;;18.10;58.40;;;;;;5024974;28;20051;-73
2021/12/16 09:42:03;;;;;;;4.35;2.83;;;18.10;58.30;;;;;;5000573;28;20078;-74
2021/12/16 09:44:29;;;;;;;8.80;3.40;;;18.10;58.30;;;;;;5023715;28;20087;-73
2021/12/16 09:46:56;;;;;;;5.07;2.53;;;18.10;58.30;;;;;;5025219;28;20034;-74
2021/12/16 09:49:21;;;;;;;5.82;2.88;;;18.10;58.30;;;;;;5022178;28;20041;-73
2021/12/16 09:51:48;;;;;;;4.43;2.80;;;18.00;58.20;;;;;;4983371;23;20035;-52
2021/12/16 09:54:16;;;;;;;4.57;3.28;;;18.10;58.30;;;;;;4971473;28;20031;-54
2021/12/16 09:56:42;;;;;;;5.25;3.30;;;18.10;58.20;;;;;;4963146;28;20033;-53
2021/12/16 09:59:12;;;;;;;7.82;3.08;;;18.10;58.20;;;;;;4959459;28;20541;-55
2021/12/16 10:01:38;;;;;;;4.10;2.75;;;18.10;58.20;;;;;;4960034;28;20035;-53
2021/12/16 10:04:05;;;;;;;4.30;2.67;;;18.20;58.20;;;;;;4963622;28;20043;-54
2021/12/16 10:06:32;;;;;;;4.32;2.58;;;18.20;58.20;;;;;;4964783;28;20171;-57
2021/12/16 10:09:00;;;;;;;3.45;3.05;;;18.20;58.20;;;;;;4962014;28;20426;-53
2021/12/16 10:11:26;;;;;;;5.28;2.92;;;18.20;58.20;;;;;;4963771;28;20027;-55
2021/12/16 10:19:08;;;;;;;3.78;2.85;;;18.20;58.20;;;;;;4962758;28;20042;-58
2021/12/16 10:21:35;;;;;;;5.20;2.55;;;18.20;58.10;;;;;;4962158;28;20458;-52
2021/12/16 10:24:00;;;;;;;5.45;2.90;;;18.20;58.10;;;;;;4964655;28;20057;-59
2021/12/16 10:26:27;;;;;;;4.55;2.85;;;18.20;58.00;;;;;;4963635;28;20655;-54
2021/12/16 10:28:56;;;;;;;8.27;3.08;;;18.20;58.00;;;;;;4961476;28;20043;-58
2021/12/16 10:31:30;;;;;;;6.18;3.17;;;18.20;58.00;;;;;;4961752;28;20221;-59
2021/12/16 10:33:58;;;;;;;5.03;2.90;;;18.30;58.00;;;;;;4962606;28;20038;-55
2021/12/16 10:36:37;;;;;;;4.25;3.10;;;18.30;57.90;;;;;;4962666;28;20076;-58
2021/12/16 10:39:29;;;;;;;3.22;2.70;;;18.30;57.90;;;;;;4941734;28;20514;-52
2021/12/16 10:41:59;;;;;;;4.97;2.67;;;18.20;57.80;;;;;;4959513;28;21873;-52
2021/12/16 10:44:33;;;;;;;6.72;3.05;;;18.20;57.80;;;;;;4959262;28;20495;-51
2021/12/16 10:47:05;;;;;;;5.13;2.72;;;18.20;57.80;;;;;;4956020;28;20097;-54
2021/12/16 10:49:39;;;;;;;5.03;3.05;;;18.30;57.90;;;;;;4959736;28;20655;-54
2021/12/16 10:52:12;;;;;;;5.97;2.70;;;18.20;57.80;;;;;;4955603;28;20160;-56
2021/12/16 10:54:40;;;;;;;4.32;2.42;;;18.20;57.80;;;;;;4956562;28;20035;-56
2021/12/16 10:57:10;;;;;;;2.60;2.30;;;18.20;57.60;;;;;;4960630;28;20454;-53
2021/12/16 10:59:44;;;;;;;5.00;2.60;;;18.20;57.70;;;;;;4955906;28;20392;-56
2021/12/16 11:02:23;;;;;;;4.95;2.50;;;18.20;57.60;;;;;;4955366;28;20057;-56
2021/12/16 11:04:52;;;;;;;5.32;3.00;;;18.20;57.70;;;;;;4971421;28;20282;-57
2021/12/16 11:07:41;;;;;;;5.97;2.75;;;18.20;57.60;;;;;;4959470;28;20047;-52
2021/12/16 11:10:18;;;;;;;3.72;2.53;;;18.20;57.70;;;;;;4950763;28;20049;-58
2021/12/16 11:12:57;;;;;;;4.03;3.28;;;18.20;57.70;;;;;;4953338;28;20038;-51
2021/12/16 11:15:33;;;;;;;3.85;2.97;;;18.20;57.70;;;;;;4973349;28;20043;-56
2021/12/16 11:18:02;;;;;;;4.50;3.03;;;18.20;57.80;;;;;;4954065;28;20538;-58
2021/12/16 11:20:43;;;;;;;3.30;3.00;;;18.20;57.80;;;;;;4955631;28;20030;-53
2021/12/16 11:23:37;;;;;;;3.05;2.80;;;18.20;57.70;;;;;;4949035;28;20039;-54
2021/12/16 11:26:09;;;;;;;5.82;2.80;;;18.20;57.80;;;;;;4951513;28;20042;-55
2021/12/16 11:28:37;;;;;;;3.58;3.10;;;18.30;57.80;;;;;;4958960;28;20042;-57
2021/12/16 11:31:10;;;;;;;5.93;3.25;;;18.30;57.80;;;;;;4960148;28;20081;-54
2021/12/16 11:33:42;;;;;;;5.35;3.30;;;18.30;57.70;;;;;;4960910;28;20384;-56
2021/12/16 11:36:14;;;;;;;4.65;3.63;;;18.20;57.70;;;;;;4963009;28;20054;-55
2021/12/16 11:38:59;;;;;;;11.18;4.93;;;18.20;57.80;;;;;;4961986;28;20207;-56
2021/12/16 11:41:30;;;;;;;16.90;10.15;;;18.20;58.00;;;;;;4963274;28;20043;-52
2021/12/16 11:44:18;;;;;;;49.58;28.55;;;18.30;58.30;;;;;;4962796;28;20038;-54
2021/12/16 11:46:53;;;;;;;129.68;80.03;;;18.30;58.60;;;;;;4961075;28;20042;-58
2021/12/16 11:49:24;;;;;;;152.98;109.28;;;18.30;58.90;;;;;;4961872;28;20565;-55
2021/12/16 11:51:56;;;;;;;164.48;115.25;;;18.30;59.10;;;;;;4963410;28;20485;-57
2021/12/16 11:54:24;;;;;;;177.27;120.10;;;18.30;59.60;;;;;;4963171;28;20031;-55
2021/12/16 11:57:04;;;;;;;155.63;104.85;;;18.30;59.70;;;;;;4962946;28;20026;-54
2021/12/16 11:59:52;;;;;;;146.63;101.75;;;18.30;59.70;;;;;;4962304;28;20057;-55
2021/12/16 12:02:32;;;;;;;137.65;92.60;;;18.30;59.80;;;;;;4961649;28;20031;-53
2021/12/16 12:05:12;;;;;;;132.05;86.10;;;18.30;59.80;;;;;;4961744;28;20082;-57
2021/12/16 12:07:52;;;;;;;118.47;78.13;;;18.30;59.60;;;;;;4959770;28;20077;-51
2021/12/16 12:10:39;;;;;;;109.53;75.60;;;18.30;59.60;;;;;;4960193;28;20035;-56
2021/12/16 12:13:06;;;;;;;104.88;71.30;;;18.30;59.70;;;;;;4960768;28;20487;-56
2021/12/16 12:15:32;;;;;;;98.13;68.80;;;18.30;59.60;;;;;;4963638;28;20031;-57
2021/12/16 12:17:58;;;;;;;90.20;59.83;;;18.30;59.60;;;;;;4957975;28;20159;-54
2021/12/16 12:20:29;;;;;;;85.85;58.05;;;18.30;59.50;;;;;;4959842;28;20122;-55
2021/12/16 12:22:54;;;;;;;86.93;57.92;;;18.30;59.50;;;;;;4953805;28;20031;-51
2021/12/16 12:25:20;;;;;;;74.03;50.90;;;18.30;59.40;;;;;;4958189;28;20043;-53
2021/12/16 12:27:45;;;;;;;77.70;51.45;;;18.30;59.40;;;;;;4958948;28;20026;-52
2021/12/16 12:30:12;;;;;;;70.88;49.95;;;18.30;59.40;;;;;;4962641;28;20023;-55
2021/12/16 12:32:39;;;;;;;70.88;46.20;;;18.30;59.30;;;;;;4964295;28;20034;-54
2021/12/16 12:35:12;;;;;;;75.00;48.45;;;18.30;59.20;;;;;;4965129;28;20030;-52
2021/12/16 12:37:41;;;;;;;64.00;42.97;;;18.30;59.20;;;;;;4963117;28;20085;-53
2021/12/16 12:40:38;;;;;;;63.85;42.08;;;18.30;59.10;;;;;;4965846;28;20509;-56
2021/12/16 12:43:04;;;;;;;63.08;38.30;;;18.30;59.10;;;;;;4966687;28;20023;-57
2021/12/16 12:45:34;;;;;;;64.15;40.67;;;18.30;59.10;;;;;;4966094;28;20035;-53
2021/12/16 12:48:00;;;;;;;56.42;37.80;;;18.30;59.10;;;;;;4961282;28;20066;-54
2021/12/16 12:50:33;;;;;;;54.22;37.38;;;18.40;59.00;;;;;;4965391;28;20054;-58
2021/12/16 12:53:13;;;;;;;51.97;34.75;;;18.30;58.90;;;;;;4960746;28;20492;-52
2021/12/16 12:55:38;;;;;;;52.33;36.55;;;18.30;58.90;;;;;;4964726;28;20027;-56
2021/12/16 12:58:09;;;;;;;48.65;33.65;;;18.30;58.80;;;;;;4963804;28;20031;-51
2021/12/16 13:00:40;;;;;;;46.65;30.45;;;18.30;58.80;;;;;;4962037;28;20031;-54
2021/12/16 13:03:12;;;;;;;43.85;27.90;;;18.30;58.80;;;;;;4966191;28;20192;-55
2021/12/16 13:05:37;;;;;;;40.78;26.58;;;18.30;58.70;;;;;;4964949;28;20041;-58
2021/12/16 13:08:06;;;;;;;44.50;26.88;;;18.30;58.60;;;;;;4965817;28;20031;-57
2021/12/16 13:10:39;;;;;;;43.55;25.52;;;18.30;58.50;;;;;;4966335;28;20453;-55
2021/12/16 13:13:27;;;;;;;37.50;24.60;;;18.30;58.50;;;;;;4964288;28;20037;-61
2021/12/16 13:16:13;;;;;;;35.67;23.85;;;18.30;58.60;;;;;;4965678;28;20019;-56
2021/12/16 13:26:51;;;;;;;33.28;21.17;;;18.30;58.50;;;;;;4965069;28;20027;-56
2021/12/16 13:29:35;;;;;;;35.20;21.90;;;18.30;58.50;;;;;;4964859;28;20434;-55
2021/12/16 13:34:42;;;;;;;28.75;19.00;;;18.30;58.50;;;;;;4964005;28;20031;-56
2021/12/16 13:37:39;;;;;;;26.15;17.90;;;18.30;58.50;;;;;;4965300;28;20239;-54
2021/12/16 13:40:29;;;;;;;28.60;17.25;;;18.30;58.50;;;;;;4963135;28;20053;-62
2021/12/16 13:43:00;;;;;;;25.83;17.00;;;18.30;58.50;;;;;;4963048;28;20042;-56
2021/12/16 13:45:44;;;;;;;26.15;17.42;;;18.30;58.50;;;;;;4963380;28;20051;-55
2021/12/16 14:07:59;;;;;;;17.98;12.73;;;18.30;58.40;;;;;;4962097;28;20031;-56
2021/12/16 14:10:52;;;;;;;20.45;12.27;;;18.20;58.40;;;;;;4963777;28;20513;-56
2021/12/16 14:25:28;;;;;;;13.73;10.25;;;18.30;58.40;;;;;;4961726;28;20030;-52
2021/12/16 14:43:37;;;;;;;12.93;7.53;;;18.20;58.30;;;;;;4962513;28;20109;-55
2021/12/16 14:46:05;;;;;;;13.48;8.23;;;18.20;58.30;;;;;;4956715;28;20050;-52
2021/12/16 14:48:35;;;;;;;15.57;8.63;;;18.20;58.30;;;;;;4962393;28;20035;-55
2021/12/16 14:51:06;;;;;;;11.00;7.80;;;18.30;58.20;;;;;;4963159;28;20748;-58
2021/12/16 14:53:58;;;;;;;12.57;7.20;;;18.20;58.20;;;;;;4963532;28;20081;-54
2021/12/16 14:56:31;;;;;;;11.68;7.40;;;18.20;58.10;;;;;;4961834;28;20039;-55
2021/12/16 14:58:59;;;;;;;10.40;6.88;;;18.20;58.20;;;;;;4961899;28;20058;-57
2021/12/16 15:01:30;;;;;;;11.02;7.43;;;18.30;58.20;;;;;;4962852;28;23630;-56
2021/12/16 15:03:56;;;;;;;12.50;6.65;;;18.30;58.10;;;;;;4961566;28;20042;-55
2021/12/16 15:06:32;;;;;;;9.93;6.75;;;18.20;58.00;;;;;;4963347;28;20039;-54
2021/12/16 15:09:14;;;;;;;8.30;6.60;;;18.30;58.00;;;;;;4963508;28;20035;-56
2021/12/16 15:11:52;;;;;;;10.65;6.85;;;18.30;58.00;;;;;;4962917;28;20031;-55
2021/12/16 15:31:43;;;;;;;11.73;6.38;;;18.30;58.10;;;;;;4944949;28;20767;-58
2021/12/16 15:32:48;;;;;;;9.35;5.75;;;18.20;58.20;;;;;;4962807;28;20034;-57
2021/12/16 15:37:30;;;;;;;7.13;4.32;;;18.20;58.20;;;;;;4963395;28;20045;-53
2021/12/16 15:45:17;;;;;;;7.30;4.32;;;18.10;58.20;;;;;;4958707;28;20074;-55
2021/12/16 15:47:48;;;;;;;9.90;4.35;;;18.10;58.20;;;;;;4962807;28;20337;-59
2021/12/16 15:50:16;;;;;;;8.30;4.85;;;18.10;58.30;;;;;;4962173;28;20034;-52
2021/12/16 15:53:02;;;;;;;6.63;4.88;;;18.20;58.30;;;;;;4962081;28;20034;-57
2021/12/16 15:55:35;;;;;;;6.18;4.18;;;18.20;58.30;;;;;;4975126;28;20647;-59
2021/12/16 15:58:03;;;;;;;6.00;4.55;;;18.10;58.30;;;;;;4979654;28;20030;-53
2021/12/16 16:00:29;;;;;;;7.18;4.47;;;18.20;58.30;;;;;;4979079;28;20340;-56
2021/12/16 16:02:58;;;;;;;4.78;3.97;;;18.10;58.40;;;;;;4979165;28;20248;-59
2021/12/16 16:05:29;;;;;;;6.55;4.28;;;18.10;58.30;;;;;;4998802;28;20030;-52
2021/12/16 16:07:59;;;;;;;6.53;4.65;;;18.20;58.40;;;;;;5002750;28;20060;-58
2021/12/16 16:10:24;;;;;;;5.80;3.30;;;18.10;58.40;;;;;;5004857;28;20030;-54
2021/12/16 16:12:50;;;;;;;5.18;4.18;;;18.20;58.50;;;;;;5006131;28;20076;-59
2021/12/16 16:15:16;;;;;;;5.82;3.65;;;18.20;58.50;;;;;;5005422;28;20060;-55
2021/12/16 16:18:00;;;;;;;4.95;3.63;;;18.20;58.50;;;;;;5003929;28;20032;-58
2021/12/16 16:20:31;;;;;;;5.35;3.67;;;18.10;58.50;;;;;;5004917;28;20112;-52
2021/12/16 16:22:56;;;;;;;5.60;3.58;;;18.10;58.50;;;;;;5001274;28;20041;-57
2021/12/16 16:25:22;;;;;;;5.25;3.70;;;18.20;58.50;;;;;;5005284;28;20026;-52
2021/12/16 16:27:47;;;;;;;4.68;3.45;;;18.10;58.50;;;;;;5001306;28;20038;-53
2021/12/16 16:30:13;;;;;;;9.25;3.90;;;18.20;58.50;;;;;;4990873;28;20025;-50